Almond, New York
Current Conditions -  °F | °C
As of 7:54 AM on Friday 31 Oct 2014 (Local Time) from KDSV Reporting Station
Overcast Overcast  
Wind Chill: 34°   Ceiling: 5500
Heat Index: 39°   Visibility: 10mi
Dew Point: 35°   Wind: 7mph
Humidity: 86%   Direction: 150°SSE
Pressure: 29.99"   Gusts: NA
Location:  42.32°N, 77.74°W
Report Text: KDSV 311154Z AUTO 15006KT 10SM OVC055 04/02 A2999 RMK AO2 SLP167 T00390017 10050 20033 55002
Loading
Personal Weather Stations






























Interactive Weather Map
Tropical Storm Tracking
New forecast layout! Learn more

10-Day Weather Forecast

Advertisements
Track Severe Weather on mobile